Farwell, Texas
Current Conditions -  °F | °C
As of 9:35 PM on Saturday 20 Dec 2014 (Local Time) from KCVN Reporting Station
Clear Clear  
Wind Chill: 23°   Ceiling: Unl
Heat Index: 30°   Visibility: 10mi
Dew Point: 16°   Wind: 8mph
Humidity: 55%   Direction: 220°SW
Pressure: 30"   Gusts: NA
Location:  34.38°N, 103.04°W
Report Text: KCVN 210335Z 22007KT 10SM CLR M01/M09 A3000 RMK AO1
Loading
Personal Weather Stations






























Interactive Weather Map New forecast layout! Learn more

10-Day Weather Forecast

Advertisements
Track Severe Weather on mobile